sensor_id;sensor_type;location;lat;lon;timestamp;P1;durP1;ratioP1;P2;durP2;ratioP2
22468;SDS011;11401;50.792;4.352;2024-03-25T00:00:23;6.60;;;5.30;;
22468;SDS011;11401;50.792;4.352;2024-03-25T00:02:50;6.85;;;5.70;;
22468;SDS011;11401;50.792;4.352;2024-03-25T00:05:17;8.75;;;5.43;;
22468;SDS011;11401;50.792;4.352;2024-03-25T00:07:48;7.63;;;4.85;;
22468;SDS011;11401;50.792;4.352;2024-03-25T00:10:14;7.80;;;4.85;;
22468;SDS011;11401;50.792;4.352;2024-03-25T00:12:41;6.10;;;4.72;;
22468;SDS011;11401;50.792;4.352;2024-03-25T00:15:07;7.43;;;5.35;;
22468;SDS011;11401;50.792;4.352;2024-03-25T00:17:33;5.28;;;4.78;;
22468;SDS011;11401;50.792;4.352;2024-03-25T00:20:00;5.00;;;4.60;;
22468;SDS011;11401;50.792;4.352;2024-03-25T00:22:26;6.97;;;4.57;;
22468;SDS011;11401;50.792;4.352;2024-03-25T00:24:52;5.25;;;4.80;;
22468;SDS011;11401;50.792;4.352;2024-03-25T00:27:18;5.35;;;4.60;;
22468;SDS011;11401;50.792;4.352;2024-03-25T00:29:44;5.35;;;4.22;;
22468;SDS011;11401;50.792;4.352;2024-03-25T00:32:10;6.30;;;4.70;;
22468;SDS011;11401;50.792;4.352;2024-03-25T00:34:36;5.70;;;4.82;;
22468;SDS011;11401;50.792;4.352;2024-03-25T00:37:03;5.72;;;5.10;;
22468;SDS011;11401;50.792;4.352;2024-03-25T00:39:29;9.52;;;5.53;;
22468;SDS011;11401;50.792;4.352;2024-03-25T00:41:58;5.28;;;4.50;;
22468;SDS011;11401;50.792;4.352;2024-03-25T00:44:24;8.43;;;5.07;;
22468;SDS011;11401;50.792;4.352;2024-03-25T00:46:50;6.15;;;4.82;;
22468;SDS011;11401;50.792;4.352;2024-03-25T00:49:16;5.35;;;4.80;;
22468;SDS011;11401;50.792;4.352;2024-03-25T00:51:42;5.93;;;4.80;;
22468;SDS011;11401;50.792;4.352;2024-03-25T00:54:08;5.68;;;4.47;;
22468;SDS011;11401;50.792;4.352;2024-03-25T00:56:35;5.65;;;4.63;;
22468;SDS011;11401;50.792;4.352;2024-03-25T00:59:01;5.55;;;4.30;;
22468;SDS011;11401;50.792;4.352;2024-03-25T01:01:28;6.40;;;4.75;;
22468;SDS011;11401;50.792;4.352;2024-03-25T01:03:55;4.28;;;3.88;;
22468;SDS011;11401;50.792;4.352;2024-03-25T01:06:21;4.95;;;3.95;;
22468;SDS011;11401;50.792;4.352;2024-03-25T01:08:48;4.47;;;4.07;;
22468;SDS011;11401;50.792;4.352;2024-03-25T01:11:15;5.35;;;4.50;;
22468;SDS011;11401;50.792;4.352;2024-03-25T01:13:42;4.93;;;4.03;;
22468;SDS011;11401;50.792;4.352;2024-03-25T01:16:08;5.82;;;4.70;;
22468;SDS011;11401;50.792;4.352;2024-03-25T01:18:34;4.20;;;3.85;;
22468;SDS011;11401;50.792;4.352;2024-03-25T01:21:01;5.45;;;4.03;;
22468;SDS011;11401;50.792;4.352;2024-03-25T01:23:27;4.90;;;4.40;;
22468;SDS011;11401;50.792;4.352;2024-03-25T01:25:53;4.63;;;4.00;;
22468;SDS011;11401;50.792;4.352;2024-03-25T01:28:19;4.70;;;3.90;;
22468;SDS011;11401;50.792;4.352;2024-03-25T01:30:45;4.70;;;4.30;;
22468;SDS011;11401;50.792;4.352;2024-03-25T01:33:11;3.45;;;3.25;;
22468;SDS011;11401;50.792;4.352;2024-03-25T01:35:37;6.88;;;4.05;;
22468;SDS011;11401;50.792;4.352;2024-03-25T01:38:03;4.15;;;3.78;;
22468;SDS011;11401;50.792;4.352;2024-03-25T01:40:29;3.92;;;3.63;;
22468;SDS011;11401;50.792;4.352;2024-03-25T01:42:59;3.60;;;3.40;;
22468;SDS011;11401;50.792;4.352;2024-03-25T01:45:27;4.03;;;3.40;;
22468;SDS011;11401;50.792;4.352;2024-03-25T01:47:57;5.55;;;3.45;;
22468;SDS011;11401;50.792;4.352;2024-03-25T01:50:27;4.22;;;3.83;;
22468;SDS011;11401;50.792;4.352;2024-03-25T01:52:55;4.00;;;3.70;;
22468;SDS011;11401;50.792;4.352;2024-03-25T01:55:23;3.85;;;3.53;;
22468;SDS011;11401;50.792;4.352;2024-03-25T01:57:52;6.63;;;3.28;;
22468;SDS011;11401;50.792;4.352;2024-03-25T02:00:18;3.78;;;3.42;;
22468;SDS011;11401;50.792;4.352;2024-03-25T02:02:45;4.00;;;3.60;;
22468;SDS011;11401;50.792;4.352;2024-03-25T02:05:15;4.32;;;3.50;;
22468;SDS011;11401;50.792;4.352;2024-03-25T02:07:43;5.30;;;3.72;;
22468;SDS011;11401;50.792;4.352;2024-03-25T02:10:10;4.13;;;3.83;;
22468;SDS011;11401;50.792;4.352;2024-03-25T02:12:43;4.45;;;3.58;;
22468;SDS011;11401;50.792;4.352;2024-03-25T02:15:10;3.78;;;3.35;;
22468;SDS011;11401;50.792;4.352;2024-03-25T02:17:37;4.43;;;3.70;;
22468;SDS011;11401;50.792;4.352;2024-03-25T02:20:03;4.15;;;3.33;;
22468;SDS011;11401;50.792;4.352;2024-03-25T02:22:36;3.55;;;3.25;;
22468;SDS011;11401;50.792;4.352;2024-03-25T02:25:06;3.80;;;3.22;;
22468;SDS011;11401;50.792;4.352;2024-03-25T02:27:34;3.65;;;3.35;;
22468;SDS011;11401;50.792;4.352;2024-03-25T02:30:05;3.92;;;3.60;;
22468;SDS011;11401;50.792;4.352;2024-03-25T02:32:33;3.10;;;2.75;;
22468;SDS011;11401;50.792;4.352;2024-03-25T02:34:59;3.58;;;3.20;;
22468;SDS011;11401;50.792;4.352;2024-03-25T02:37:27;3.92;;;3.38;;
22468;SDS011;11401;50.792;4.352;2024-03-25T02:39:54;3.50;;;3.20;;
22468;SDS011;11401;50.792;4.352;2024-03-25T02:42:23;3.65;;;3.20;;
22468;SDS011;11401;50.792;4.352;2024-03-25T02:44:51;3.45;;;3.20;;
22468;SDS011;11401;50.792;4.352;2024-03-25T02:47:17;4.55;;;3.00;;
22468;SDS011;11401;50.792;4.352;2024-03-25T02:49:44;3.72;;;3.30;;
22468;SDS011;11401;50.792;4.352;2024-03-25T02:52:11;3.40;;;3.10;;
22468;SDS011;11401;50.792;4.352;2024-03-25T02:54:37;3.78;;;3.40;;
22468;SDS011;11401;50.792;4.352;2024-03-25T02:57:03;3.65;;;3.33;;
22468;SDS011;11401;50.792;4.352;2024-03-25T02:59:29;3.40;;;3.10;;
22468;SDS011;11401;50.792;4.352;2024-03-25T03:01:55;4.93;;;3.55;;
22468;SDS011;11401;50.792;4.352;2024-03-25T03:04:21;3.70;;;3.20;;
22468;SDS011;11401;50.792;4.352;2024-03-25T03:06:48;3.55;;;3.25;;
22468;SDS011;11401;50.792;4.352;2024-03-25T03:09:14;3.75;;;3.45;;
22468;SDS011;11401;50.792;4.352;2024-03-25T03:11:40;3.80;;;3.40;;
22468;SDS011;11401;50.792;4.352;2024-03-25T03:14:07;6.57;;;4.13;;
22468;SDS011;11401;50.792;4.352;2024-03-25T03:16:33;3.80;;;3.50;;
22468;SDS011;11401;50.792;4.352;2024-03-25T03:18:59;4.30;;;3.72;;
22468;SDS011;11401;50.792;4.352;2024-03-25T03:21:25;3.90;;;3.58;;
22468;SDS011;11401;50.792;4.352;2024-03-25T03:23:51;5.88;;;3.40;;
22468;SDS011;11401;50.792;4.352;2024-03-25T03:26:17;5.93;;;4.72;;
22468;SDS011;11401;50.792;4.352;2024-03-25T03:28:43;5.32;;;4.13;;
22468;SDS011;11401;50.792;4.352;2024-03-25T03:31:09;5.65;;;3.83;;
22468;SDS011;11401;50.792;4.352;2024-03-25T03:33:35;3.65;;;3.08;;
22468;SDS011;11401;50.792;4.352;2024-03-25T03:36:01;6.75;;;5.28;;
22468;SDS011;11401;50.792;4.352;2024-03-25T03:38:27;7.85;;;4.32;;
22468;SDS011;11401;50.792;4.352;2024-03-25T03:41:01;6.22;;;4.65;;
22468;SDS011;11401;50.792;4.352;2024-03-25T03:43:28;4.32;;;3.90;;
22468;SDS011;11401;50.792;4.352;2024-03-25T03:45:54;7.82;;;4.15;;
22468;SDS011;11401;50.792;4.352;2024-03-25T03:48:20;4.28;;;3.88;;
22468;SDS011;11401;50.792;4.352;2024-03-25T03:50:46;4.38;;;3.95;;
22468;SDS011;11401;50.792;4.352;2024-03-25T03:53:12;4.97;;;4.07;;
22468;SDS011;11401;50.792;4.352;2024-03-25T03:55:39;4.13;;;3.70;;
22468;SDS011;11401;50.792;4.352;2024-03-25T03:58:05;5.53;;;4.30;;
22468;SDS011;11401;50.792;4.352;2024-03-25T04:00:34;5.57;;;4.35;;
22468;SDS011;11401;50.792;4.352;2024-03-25T04:03:01;4.45;;;4.00;;
22468;SDS011;11401;50.792;4.352;2024-03-25T04:05:29;5.40;;;3.85;;
22468;SDS011;11401;50.792;4.352;2024-03-25T04:07:55;6.20;;;4.20;;
22468;SDS011;11401;50.792;4.352;2024-03-25T04:10:22;7.65;;;3.90;;
22468;SDS011;11401;50.792;4.352;2024-03-25T04:12:49;6.97;;;4.63;;
22468;SDS011;11401;50.792;4.352;2024-03-25T04:15:15;5.45;;;4.22;;
22468;SDS011;11401;50.792;4.352;2024-03-25T04:17:43;7.10;;;3.88;;
22468;SDS011;11401;50.792;4.352;2024-03-25T04:20:13;6.00;;;4.53;;
22468;SDS011;11401;50.792;4.352;2024-03-25T04:22:43;6.95;;;3.35;;
22468;SDS011;11401;50.792;4.352;2024-03-25T04:25:10;7.55;;;4.03;;
22468;SDS011;11401;50.792;4.352;2024-03-25T04:27:40;4.53;;;3.90;;
22468;SDS011;11401;50.792;4.352;2024-03-25T04:30:07;5.22;;;3.80;;
22468;SDS011;11401;50.792;4.352;2024-03-25T04:32:34;8.00;;;4.35;;
22468;SDS011;11401;50.792;4.352;2024-03-25T04:35:01;6.68;;;4.32;;
22468;SDS011;11401;50.792;4.352;2024-03-25T04:37:27;7.47;;;4.50;;
22468;SDS011;11401;50.792;4.352;2024-03-25T04:39:54;5.35;;;4.07;;
22468;SDS011;11401;50.792;4.352;2024-03-25T04:42:21;5.22;;;3.88;;
22468;SDS011;11401;50.792;4.352;2024-03-25T04:44:48;5.28;;;3.67;;
22468;SDS011;11401;50.792;4.352;2024-03-25T04:47:14;4.28;;;3.60;;
22468;SDS011;11401;50.792;4.352;2024-03-25T04:49:41;4.80;;;3.95;;
22468;SDS011;11401;50.792;4.352;2024-03-25T04:52:07;5.53;;;4.07;;
22468;SDS011;11401;50.792;4.352;2024-03-25T04:54:33;5.93;;;4.05;;
22468;SDS011;11401;50.792;4.352;2024-03-25T04:56:59;6.05;;;4.60;;
22468;SDS011;11401;50.792;4.352;2024-03-25T04:59:27;5.28;;;3.97;;
22468;SDS011;11401;50.792;4.352;2024-03-25T05:01:53;6.55;;;4.53;;
22468;SDS011;11401;50.792;4.352;2024-03-25T05:04:20;6.00;;;4.47;;
22468;SDS011;11401;50.792;4.352;2024-03-25T05:06:46;6.25;;;4.68;;
22468;SDS011;11401;50.792;4.352;2024-03-25T05:09:12;5.35;;;4.47;;
22468;SDS011;11401;50.792;4.352;2024-03-25T05:11:38;5.28;;;4.03;;
22468;SDS011;11401;50.792;4.352;2024-03-25T05:14:04;6.00;;;4.90;;
22468;SDS011;11401;50.792;4.352;2024-03-25T05:16:31;5.10;;;4.60;;
22468;SDS011;11401;50.792;4.352;2024-03-25T05:18:57;6.07;;;4.78;;
22468;SDS011;11401;50.792;4.352;2024-03-25T05:21:23;5.05;;;4.55;;
22468;SDS011;11401;50.792;4.352;2024-03-25T05:23:49;6.60;;;5.20;;
22468;SDS011;11401;50.792;4.352;2024-03-25T05:26:15;5.55;;;4.47;;
22468;SDS011;11401;50.792;4.352;2024-03-25T05:28:41;6.47;;;5.22;;
22468;SDS011;11401;50.792;4.352;2024-03-25T05:31:10;8.50;;;4.95;;
22468;SDS011;11401;50.792;4.352;2024-03-25T05:33:36;7.60;;;4.85;;
22468;SDS011;11401;50.792;4.352;2024-03-25T05:36:03;7.45;;;5.20;;
22468;SDS011;11401;50.792;4.352;2024-03-25T05:38:29;7.35;;;5.72;;
22468;SDS011;11401;50.792;4.352;2024-03-25T05:43:48;6.93;;;4.45;;
22468;SDS011;11401;50.792;4.352;2024-03-25T05:46:15;6.15;;;5.55;;
22468;SDS011;11401;50.792;4.352;2024-03-25T05:48:42;12.32;;;6.07;;
22468;SDS011;11401;50.792;4.352;2024-03-25T05:51:09;6.55;;;5.03;;
22468;SDS011;11401;50.792;4.352;2024-03-25T05:53:36;11.70;;;6.03;;
22468;SDS011;11401;50.792;4.352;2024-03-25T05:56:03;10.18;;;5.68;;
22468;SDS011;11401;50.792;4.352;2024-03-25T05:58:31;8.65;;;5.43;;
22468;SDS011;11401;50.792;4.352;2024-03-25T06:00:57;12.80;;;5.35;;
22468;SDS011;11401;50.792;4.352;2024-03-25T06:03:23;6.57;;;5.80;;
22468;SDS011;11401;50.792;4.352;2024-03-25T06:05:49;7.78;;;5.85;;
22468;SDS011;11401;50.792;4.352;2024-03-25T06:08:15;7.20;;;5.97;;
22468;SDS011;11401;50.792;4.352;2024-03-25T06:10:49;8.38;;;5.30;;
22468;SDS011;11401;50.792;4.352;2024-03-25T06:13:17;9.80;;;6.07;;
22468;SDS011;11401;50.792;4.352;2024-03-25T06:15:43;9.23;;;5.63;;
22468;SDS011;11401;50.792;4.352;2024-03-25T06:18:09;6.63;;;5.53;;
22468;SDS011;11401;50.792;4.352;2024-03-25T06:20:36;7.47;;;6.38;;
22468;SDS011;11401;50.792;4.352;2024-03-25T06:23:04;8.00;;;5.88;;
22468;SDS011;11401;50.792;4.352;2024-03-25T06:25:32;9.02;;;5.50;;
22468;SDS011;11401;50.792;4.352;2024-03-25T06:28:02;6.35;;;5.43;;
22468;SDS011;11401;50.792;4.352;2024-03-25T06:30:29;8.50;;;6.10;;
22468;SDS011;11401;50.792;4.352;2024-03-25T06:33:15;9.00;;;6.40;;
22468;SDS011;11401;50.792;4.352;2024-03-25T06:36:00;12.05;;;6.00;;
22468;SDS011;11401;50.792;4.352;2024-03-25T06:38:26;9.05;;;6.32;;
22468;SDS011;11401;50.792;4.352;2024-03-25T06:40:52;12.27;;;6.65;;
22468;SDS011;11401;50.792;4.352;2024-03-25T06:43:20;7.63;;;6.15;;
22468;SDS011;11401;50.792;4.352;2024-03-25T06:45:47;10.98;;;6.57;;
22468;SDS011;11401;50.792;4.352;2024-03-25T06:48:14;9.90;;;6.88;;
22468;SDS011;11401;50.792;4.352;2024-03-25T06:50:40;8.73;;;5.80;;
22468;SDS011;11401;50.792;4.352;2024-03-25T06:53:09;10.57;;;6.75;;
22468;SDS011;11401;50.792;4.352;2024-03-25T06:55:36;10.50;;;6.20;;
22468;SDS011;11401;50.792;4.352;2024-03-25T06:58:02;11.20;;;6.47;;
22468;SDS011;11401;50.792;4.352;2024-03-25T07:00:28;12.05;;;7.05;;
22468;SDS011;11401;50.792;4.352;2024-03-25T07:02:55;11.98;;;6.75;;
22468;SDS011;11401;50.792;4.352;2024-03-25T07:05:22;9.48;;;6.00;;
22468;SDS011;11401;50.792;4.352;2024-03-25T07:07:49;7.60;;;5.45;;
22468;SDS011;11401;50.792;4.352;2024-03-25T07:10:15;9.18;;;5.93;;
22468;SDS011;11401;50.792;4.352;2024-03-25T07:12:41;7.88;;;5.75;;
22468;SDS011;11401;50.792;4.352;2024-03-25T07:15:07;10.82;;;5.95;;
22468;SDS011;11401;50.792;4.352;2024-03-25T07:17:33;11.73;;;5.72;;
22468;SDS011;11401;50.792;4.352;2024-03-25T07:19:59;7.95;;;5.68;;
22468;SDS011;11401;50.792;4.352;2024-03-25T07:22:28;10.63;;;5.93;;
22468;SDS011;11401;50.792;4.352;2024-03-25T07:24:55;11.05;;;5.88;;
22468;SDS011;11401;50.792;4.352;2024-03-25T07:27:21;8.55;;;5.68;;
22468;SDS011;11401;50.792;4.352;2024-03-25T07:29:47;11.07;;;5.05;;
22468;SDS011;11401;50.792;4.352;2024-03-25T07:32:13;12.30;;;5.82;;
22468;SDS011;11401;50.792;4.352;2024-03-25T07:34:40;9.80;;;5.88;;
22468;SDS011;11401;50.792;4.352;2024-03-25T07:37:06;10.70;;;5.75;;
22468;SDS011;11401;50.792;4.352;2024-03-25T07:39:32;9.30;;;4.88;;
22468;SDS011;11401;50.792;4.352;2024-03-25T07:41:59;11.60;;;5.50;;
22468;SDS011;11401;50.792;4.352;2024-03-25T07:44:25;11.57;;;5.80;;
22468;SDS011;11401;50.792;4.352;2024-03-25T07:46:51;8.98;;;5.45;;
22468;SDS011;11401;50.792;4.352;2024-03-25T07:49:17;7.53;;;5.03;;
22468;SDS011;11401;50.792;4.352;2024-03-25T07:51:44;9.73;;;5.20;;
22468;SDS011;11401;50.792;4.352;2024-03-25T07:54:10;8.30;;;5.40;;
22468;SDS011;11401;50.792;4.352;2024-03-25T07:56:42;13.57;;;5.13;;
22468;SDS011;11401;50.792;4.352;2024-03-25T07:59:08;9.38;;;5.00;;
22468;SDS011;11401;50.792;4.352;2024-03-25T08:01:35;16.60;;;6.35;;
22468;SDS011;11401;50.792;4.352;2024-03-25T08:04:02;9.88;;;5.55;;
22468;SDS011;11401;50.792;4.352;2024-03-25T08:06:28;10.27;;;5.22;;
22468;SDS011;11401;50.792;4.352;2024-03-25T08:08:57;5.72;;;4.32;;
22468;SDS011;11401;50.792;4.352;2024-03-25T08:11:23;7.18;;;4.75;;
22468;SDS011;11401;50.792;4.352;2024-03-25T08:13:49;11.27;;;4.90;;
22468;SDS011;11401;50.792;4.352;2024-03-25T08:16:15;11.65;;;4.72;;
22468;SDS011;11401;50.792;4.352;2024-03-25T08:18:41;15.48;;;5.60;;
22468;SDS011;11401;50.792;4.352;2024-03-25T08:21:09;9.38;;;4.57;;
22468;SDS011;11401;50.792;4.352;2024-03-25T08:23:37;6.55;;;4.30;;
22468;SDS011;11401;50.792;4.352;2024-03-25T08:26:08;8.43;;;4.80;;
22468;SDS011;11401;50.792;4.352;2024-03-25T08:28:39;9.43;;;4.38;;
22468;SDS011;11401;50.792;4.352;2024-03-25T08:31:06;9.10;;;4.72;;
22468;SDS011;11401;50.792;4.352;2024-03-25T08:33:36;8.10;;;4.55;;
22468;SDS011;11401;50.792;4.352;2024-03-25T08:36:03;7.18;;;4.63;;
22468;SDS011;11401;50.792;4.352;2024-03-25T08:38:30;6.50;;;4.32;;
22468;SDS011;11401;50.792;4.352;2024-03-25T08:40:57;10.48;;;4.47;;
22468;SDS011;11401;50.792;4.352;2024-03-25T08:43:24;11.88;;;4.78;;
22468;SDS011;11401;50.792;4.352;2024-03-25T08:45:51;12.27;;;4.35;;
22468;SDS011;11401;50.792;4.352;2024-03-25T08:48:17;10.95;;;4.20;;
22468;SDS011;11401;50.792;4.352;2024-03-25T08:50:43;8.80;;;4.97;;
22468;SDS011;11401;50.792;4.352;2024-03-25T08:53:11;8.80;;;4.68;;
22468;SDS011;11401;50.792;4.352;2024-03-25T08:55:43;7.10;;;4.38;;
22468;SDS011;11401;50.792;4.352;2024-03-25T08:58:14;6.82;;;4.35;;
22468;SDS011;11401;50.792;4.352;2024-03-25T09:00:42;8.52;;;4.95;;
22468;SDS011;11401;50.792;4.352;2024-03-25T09:03:10;11.27;;;4.30;;
22468;SDS011;11401;50.792;4.352;2024-03-25T09:05:53;7.60;;;3.97;;
22468;SDS011;11401;50.792;4.352;2024-03-25T09:08:21;10.52;;;4.20;;
22468;SDS011;11401;50.792;4.352;2024-03-25T09:10:47;6.10;;;3.90;;
22468;SDS011;11401;50.792;4.352;2024-03-25T09:13:32;7.70;;;4.25;;
22468;SDS011;11401;50.792;4.352;2024-03-25T09:15:59;8.77;;;3.90;;
22468;SDS011;11401;50.792;4.352;2024-03-25T09:18:25;5.63;;;3.55;;
22468;SDS011;11401;50.792;4.352;2024-03-25T09:20:52;5.22;;;4.10;;
22468;SDS011;11401;50.792;4.352;2024-03-25T09:23:18;7.45;;;3.95;;
22468;SDS011;11401;50.792;4.352;2024-03-25T09:25:51;10.50;;;4.15;;
22468;SDS011;11401;50.792;4.352;2024-03-25T09:28:18;8.65;;;4.15;;
22468;SDS011;11401;50.792;4.352;2024-03-25T09:30:45;7.35;;;3.75;;
22468;SDS011;11401;50.792;4.352;2024-03-25T09:33:11;6.75;;;3.90;;
22468;SDS011;11401;50.792;4.352;2024-03-25T09:35:37;8.05;;;3.83;;
22468;SDS011;11401;50.792;4.352;2024-03-25T09:38:04;6.93;;;4.43;;
22468;SDS011;11401;50.792;4.352;2024-03-25T09:40:30;9.07;;;4.75;;
22468;SDS011;11401;50.792;4.352;2024-03-25T09:42:57;12.13;;;4.70;;
22468;SDS011;11401;50.792;4.352;2024-03-25T09:45:28;8.07;;;3.95;;
22468;SDS011;11401;50.792;4.352;2024-03-25T09:47:55;7.65;;;3.88;;
22468;SDS011;11401;50.792;4.352;2024-03-25T09:50:21;8.90;;;4.47;;
22468;SDS011;11401;50.792;4.352;2024-03-25T09:52:48;7.45;;;4.10;;
22468;SDS011;11401;50.792;4.352;2024-03-25T09:55:16;10.20;;;4.50;;
22468;SDS011;11401;50.792;4.352;2024-03-25T09:57:45;9.32;;;4.43;;
22468;SDS011;11401;50.792;4.352;2024-03-25T10:00:14;9.88;;;4.70;;
22468;SDS011;11401;50.792;4.352;2024-03-25T10:02:43;9.27;;;4.28;;
22468;SDS011;11401;50.792;4.352;2024-03-25T10:05:09;7.75;;;4.18;;
22468;SDS011;11401;50.792;4.352;2024-03-25T10:07:35;7.72;;;4.20;;
22468;SDS011;11401;50.792;4.352;2024-03-25T10:10:08;4.93;;;3.75;;
22468;SDS011;11401;50.792;4.352;2024-03-25T10:12:36;5.38;;;3.65;;
22468;SDS011;11401;50.792;4.352;2024-03-25T10:15:03;11.18;;;3.83;;
22468;SDS011;11401;50.792;4.352;2024-03-25T10:17:33;6.57;;;3.53;;
22468;SDS011;11401;50.792;4.352;2024-03-25T10:19:59;6.60;;;3.17;;
22468;SDS011;11401;50.792;4.352;2024-03-25T10:22:26;8.00;;;3.95;;
22468;SDS011;11401;50.792;4.352;2024-03-25T10:24:53;4.63;;;3.22;;
22468;SDS011;11401;50.792;4.352;2024-03-25T10:27:22;6.63;;;3.80;;
22468;SDS011;11401;50.792;4.352;2024-03-25T10:29:52;6.20;;;3.65;;
22468;SDS011;11401;50.792;4.352;2024-03-25T10:32:20;7.18;;;3.25;;
22468;SDS011;11401;50.792;4.352;2024-03-25T10:34:47;6.65;;;3.75;;
22468;SDS011;11401;50.792;4.352;2024-03-25T10:37:17;7.55;;;3.72;;
22468;SDS011;11401;50.792;4.352;2024-03-25T10:39:47;4.40;;;2.88;;
22468;SDS011;11401;50.792;4.352;2024-03-25T10:42:19;5.50;;;2.75;;
22468;SDS011;11401;50.792;4.352;2024-03-25T10:44:47;5.93;;;3.42;;
22468;SDS011;11401;50.792;4.352;2024-03-25T10:47:20;8.40;;;3.55;;
22468;SDS011;11401;50.792;4.352;2024-03-25T10:49:51;5.78;;;3.00;;
22468;SDS011;11401;50.792;4.352;2024-03-25T10:52:24;4.72;;;3.15;;
22468;SDS011;11401;50.792;4.352;2024-03-25T10:54:52;3.97;;;3.03;;
22468;SDS011;11401;50.792;4.352;2024-03-25T10:57:20;9.32;;;3.40;;
22468;SDS011;11401;50.792;4.352;2024-03-25T10:59:46;7.00;;;3.40;;
22468;SDS011;11401;50.792;4.352;2024-03-25T11:02:14;3.17;;;2.83;;
22468;SDS011;11401;50.792;4.352;2024-03-25T11:04:43;5.07;;;2.90;;
22468;SDS011;11401;50.792;4.352;2024-03-25T11:07:11;3.63;;;2.78;;
22468;SDS011;11401;50.792;4.352;2024-03-25T11:09:41;4.38;;;2.67;;
22468;SDS011;11401;50.792;4.352;2024-03-25T11:12:11;3.72;;;2.70;;
22468;SDS011;11401;50.792;4.352;2024-03-25T11:14:40;3.88;;;2.78;;
22468;SDS011;11401;50.792;4.352;2024-03-25T11:17:15;3.45;;;2.67;;
22468;SDS011;11401;50.792;4.352;2024-03-25T11:19:41;4.80;;;2.85;;
22468;SDS011;11401;50.792;4.352;2024-03-25T11:22:08;4.00;;;2.70;;
22468;SDS011;11401;50.792;4.352;2024-03-25T11:24:43;3.45;;;2.47;;
22468;SDS011;11401;50.792;4.352;2024-03-25T11:27:09;5.10;;;2.72;;
22468;SDS011;11401;50.792;4.352;2024-03-25T11:29:35;2.75;;;2.42;;
22468;SDS011;11401;50.792;4.352;2024-03-25T11:32:03;5.82;;;3.08;;
22468;SDS011;11401;50.792;4.352;2024-03-25T11:34:30;2.20;;;1.90;;
22468;SDS011;11401;50.792;4.352;2024-03-25T11:36:56;5.22;;;2.47;;
22468;SDS011;11401;50.792;4.352;2024-03-25T11:39:23;3.63;;;2.60;;
22468;SDS011;11401;50.792;4.352;2024-03-25T11:41:54;2.95;;;2.40;;
22468;SDS011;11401;50.792;4.352;2024-03-25T11:44:21;3.63;;;2.55;;
22468;SDS011;11401;50.792;4.352;2024-03-25T11:46:51;2.95;;;2.47;;
22468;SDS011;11401;50.792;4.352;2024-03-25T11:49:20;4.97;;;2.00;;
22468;SDS011;11401;50.792;4.352;2024-03-25T11:51:46;3.35;;;2.15;;
22468;SDS011;11401;50.792;4.352;2024-03-25T11:54:13;3.20;;;2.40;;
22468;SDS011;11401;50.792;4.352;2024-03-25T11:56:40;3.83;;;2.40;;
22468;SDS011;11401;50.792;4.352;2024-03-25T11:59:09;2.63;;;2.22;;
22468;SDS011;11401;50.792;4.352;2024-03-25T12:01:39;4.93;;;2.40;;
22468;SDS011;11401;50.792;4.352;2024-03-25T12:06:43;2.88;;;2.17;;
22468;SDS011;11401;50.792;4.352;2024-03-25T12:09:10;5.10;;;2.33;;
22468;SDS011;11401;50.792;4.352;2024-03-25T12:11:55;3.65;;;2.58;;
22468;SDS011;11401;50.792;4.352;2024-03-25T12:14:25;4.63;;;2.05;;
22468;SDS011;11401;50.792;4.352;2024-03-25T12:16:55;3.42;;;2.05;;
22468;SDS011;11401;50.792;4.352;2024-03-25T12:19:24;2.42;;;1.98;;
22468;SDS011;11401;50.792;4.352;2024-03-25T12:21:50;2.20;;;2.00;;
22468;SDS011;11401;50.792;4.352;2024-03-25T12:24:24;2.80;;;2.00;;
22468;SDS011;11401;50.792;4.352;2024-03-25T12:26:51;2.75;;;2.10;;
22468;SDS011;11401;50.792;4.352;2024-03-25T12:29:17;2.00;;;1.80;;
22468;SDS011;11401;50.792;4.352;2024-03-25T12:31:52;2.10;;;1.90;;
22468;SDS011;11401;50.792;4.352;2024-03-25T12:34:21;3.20;;;1.92;;
22468;SDS011;11401;50.792;4.352;2024-03-25T12:36:51;1.88;;;1.73;;
22468;SDS011;11401;50.792;4.352;2024-03-25T12:39:23;2.47;;;1.90;;
22468;SDS011;11401;50.792;4.352;2024-03-25T12:41:49;3.05;;;1.75;;
22468;SDS011;11401;50.792;4.352;2024-03-25T12:44:15;3.92;;;2.20;;
22468;SDS011;11401;50.792;4.352;2024-03-25T12:46:41;2.58;;;2.33;;
22468;SDS011;11401;50.792;4.352;2024-03-25T12:49:09;3.42;;;1.88;;
22468;SDS011;11401;50.792;4.352;2024-03-25T12:51:35;2.45;;;1.80;;
22468;SDS011;11401;50.792;4.352;2024-03-25T12:54:01;2.30;;;1.70;;
22468;SDS011;11401;50.792;4.352;2024-03-25T12:56:27;3.67;;;2.03;;
22468;SDS011;11401;50.792;4.352;2024-03-25T12:58:53;3.08;;;2.03;;
22468;SDS011;11401;50.792;4.352;2024-03-25T13:01:19;3.88;;;2.00;;
22468;SDS011;11401;50.792;4.352;2024-03-25T13:03:45;4.30;;;2.05;;
22468;SDS011;11401;50.792;4.352;2024-03-25T13:06:11;1.85;;;1.52;;
22468;SDS011;11401;50.792;4.352;2024-03-25T13:08:37;2.42;;;1.77;;
22468;SDS011;11401;50.792;4.352;2024-03-25T13:11:03;1.70;;;1.60;;
22468;SDS011;11401;50.792;4.352;2024-03-25T13:13:29;3.45;;;2.20;;
22468;SDS011;11401;50.792;4.352;2024-03-25T13:15:56;4.03;;;1.92;;
22468;SDS011;11401;50.792;4.352;2024-03-25T13:18:22;3.30;;;1.73;;
22468;SDS011;11401;50.792;4.352;2024-03-25T13:20:48;1.80;;;1.70;;
22468;SDS011;11401;50.792;4.352;2024-03-25T13:23:14;2.65;;;1.40;;
22468;SDS011;11401;50.792;4.352;2024-03-25T13:25:40;1.73;;;1.63;;
22468;SDS011;11401;50.792;4.352;2024-03-25T13:28:06;2.58;;;1.70;;
22468;SDS011;11401;50.792;4.352;2024-03-25T13:30:32;1.88;;;1.60;;
22468;SDS011;11401;50.792;4.352;2024-03-25T13:32:58;2.33;;;1.77;;
22468;SDS011;11401;50.792;4.352;2024-03-25T13:35:24;1.88;;;1.77;;
22468;SDS011;11401;50.792;4.352;2024-03-25T13:37:51;2.33;;;2.00;;
22468;SDS011;11401;50.792;4.352;2024-03-25T13:40:17;2.85;;;1.98;;
22468;SDS011;11401;50.792;4.352;2024-03-25T13:42:43;3.70;;;2.00;;
22468;SDS011;11401;50.792;4.352;2024-03-25T13:45:09;1.83;;;1.70;;
22468;SDS011;11401;50.792;4.352;2024-03-25T13:47:35;2.00;;;1.88;;
22468;SDS011;11401;50.792;4.352;2024-03-25T13:50:04;2.00;;;1.80;;
22468;SDS011;11401;50.792;4.352;2024-03-25T13:52:33;5.85;;;1.85;;
22468;SDS011;11401;50.792;4.352;2024-03-25T13:55:00;2.78;;;1.65;;
22468;SDS011;11401;50.792;4.352;2024-03-25T13:57:27;1.60;;;1.50;;
22468;SDS011;11401;50.792;4.352;2024-03-25T13:59:53;4.38;;;1.83;;
22468;SDS011;11401;50.792;4.352;2024-03-25T14:02:19;5.03;;;2.00;;
22468;SDS011;11401;50.792;4.352;2024-03-25T14:04:46;1.60;;;1.50;;
22468;SDS011;11401;50.792;4.352;2024-03-25T14:07:12;3.35;;;2.10;;
22468;SDS011;11401;50.792;4.352;2024-03-25T14:09:38;1.83;;;1.60;;
22468;SDS011;11401;50.792;4.352;2024-03-25T14:12:04;3.22;;;2.03;;
22468;SDS011;11401;50.792;4.352;2024-03-25T14:14:31;3.67;;;2.13;;
22468;SDS011;11401;50.792;4.352;2024-03-25T14:16:59;4.90;;;1.60;;
22468;SDS011;11401;50.792;4.352;2024-03-25T14:19:30;3.63;;;2.03;;
22468;SDS011;11401;50.792;4.352;2024-03-25T14:21:56;4.50;;;2.10;;
22468;SDS011;11401;50.792;4.352;2024-03-25T14:24:24;5.60;;;2.28;;
22468;SDS011;11401;50.792;4.352;2024-03-25T14:26:50;2.28;;;1.70;;
22468;SDS011;11401;50.792;4.352;2024-03-25T14:29:16;3.80;;;1.52;;
22468;SDS011;11401;50.792;4.352;2024-03-25T14:31:47;2.60;;;2.03;;
22468;SDS011;11401;50.792;4.352;2024-03-25T14:34:13;2.20;;;1.67;;
22468;SDS011;11401;50.792;4.352;2024-03-25T14:36:39;2.15;;;1.90;;
22468;SDS011;11401;50.792;4.352;2024-03-25T14:39:05;3.33;;;1.65;;
22468;SDS011;11401;50.792;4.352;2024-03-25T14:41:38;1.88;;;1.70;;
22468;SDS011;11401;50.792;4.352;2024-03-25T14:44:05;2.30;;;1.77;;
22468;SDS011;11401;50.792;4.352;2024-03-25T14:46:31;1.85;;;1.58;;
22468;SDS011;11401;50.792;4.352;2024-03-25T14:48:57;4.90;;;1.88;;
22468;SDS011;11401;50.792;4.352;2024-03-25T14:51:23;2.58;;;1.70;;